TAF Text Data
IDs:
Format:
Raw Decoded Include METAR

Data at: 0445 UTC 18 Oct 2018

KLUF 180358Z AUTO 06010KT 10SM CLR 21/06 A3004 RMK AO2 SLP165 T02090060 $

TAF KLUF 180406Z 1804/1910 08009KT 9999 SKC QNH2992INS
  BECMG 1900/1901 VRB06KT 9999 SKC QNH2997INS TX25/1823Z TN12/1813Z